sensor_id;sensor_type;location;lat;lon;timestamp;P1;durP1;ratioP1;P2;durP2;ratioP2
22812;SDS011;11573;51.334;3.244;2023-04-03T00:00:34;13.15;;;4.88;;
22812;SDS011;11573;51.334;3.244;2023-04-03T00:03:01;14.27;;;5.10;;
22812;SDS011;11573;51.334;3.244;2023-04-03T00:05:28;11.10;;;5.60;;
22812;SDS011;11573;51.334;3.244;2023-04-03T00:07:55;14.30;;;5.35;;
22812;SDS011;11573;51.334;3.244;2023-04-03T00:10:22;11.50;;;5.15;;
22812;SDS011;11573;51.334;3.244;2023-04-03T00:12:49;10.65;;;5.60;;
22812;SDS011;11573;51.334;3.244;2023-04-03T00:15:16;17.55;;;6.15;;
22812;SDS011;11573;51.334;3.244;2023-04-03T00:17:43;13.93;;;6.00;;
22812;SDS011;11573;51.334;3.244;2023-04-03T00:20:10;13.07;;;5.88;;
22812;SDS011;11573;51.334;3.244;2023-04-03T00:22:37;23.13;;;6.88;;
22812;SDS011;11573;51.334;3.244;2023-04-03T00:25:04;17.52;;;6.15;;
22812;SDS011;11573;51.334;3.244;2023-04-03T00:27:32;16.55;;;6.57;;
22812;SDS011;11573;51.334;3.244;2023-04-03T00:29:58;13.75;;;7.07;;
22812;SDS011;11573;51.334;3.244;2023-04-03T00:32:25;11.52;;;6.25;;
22812;SDS011;11573;51.334;3.244;2023-04-03T00:34:52;20.60;;;7.00;;
22812;SDS011;11573;51.334;3.244;2023-04-03T00:37:19;10.05;;;6.03;;
22812;SDS011;11573;51.334;3.244;2023-04-03T00:39:46;10.05;;;6.40;;
22812;SDS011;11573;51.334;3.244;2023-04-03T00:42:13;12.00;;;7.13;;
22812;SDS011;11573;51.334;3.244;2023-04-03T00:47:08;14.82;;;6.80;;
22812;SDS011;11573;51.334;3.244;2023-04-03T00:49:37;10.35;;;6.78;;
22812;SDS011;11573;51.334;3.244;2023-04-03T00:52:06;17.02;;;7.28;;
22812;SDS011;11573;51.334;3.244;2023-04-03T00:54:40;14.25;;;7.07;;
22812;SDS011;11573;51.334;3.244;2023-04-03T00:57:08;18.85;;;7.47;;
22812;SDS011;11573;51.334;3.244;2023-04-03T00:59:46;18.02;;;7.43;;
22812;SDS011;11573;51.334;3.244;2023-04-03T01:02:17;16.90;;;6.68;;
22812;SDS011;11573;51.334;3.244;2023-04-03T01:04:45;11.15;;;6.78;;
22812;SDS011;11573;51.334;3.244;2023-04-03T01:07:18;10.07;;;7.05;;
22812;SDS011;11573;51.334;3.244;2023-04-03T01:09:56;14.10;;;6.95;;
22812;SDS011;11573;51.334;3.244;2023-04-03T01:12:27;12.23;;;7.05;;
22812;SDS011;11573;51.334;3.244;2023-04-03T01:14:57;13.63;;;7.60;;
22812;SDS011;11573;51.334;3.244;2023-04-03T01:17:37;11.77;;;7.10;;
22812;SDS011;11573;51.334;3.244;2023-04-03T01:25:37;11.00;;;6.65;;
22812;SDS011;11573;51.334;3.244;2023-04-03T01:28:08;14.07;;;6.63;;
22812;SDS011;11573;51.334;3.244;2023-04-03T01:30:43;13.63;;;6.32;;
22812;SDS011;11573;51.334;3.244;2023-04-03T01:33:19;13.18;;;6.60;;
22812;SDS011;11573;51.334;3.244;2023-04-03T01:35:47;13.52;;;6.70;;
22812;SDS011;11573;51.334;3.244;2023-04-03T01:38:14;9.48;;;5.68;;
22812;SDS011;11573;51.334;3.244;2023-04-03T01:40:41;9.75;;;6.13;;
22812;SDS011;11573;51.334;3.244;2023-04-03T01:43:08;10.35;;;5.57;;
22812;SDS011;11573;51.334;3.244;2023-04-03T01:45:36;11.80;;;6.53;;
22812;SDS011;11573;51.334;3.244;2023-04-03T01:48:03;10.05;;;5.75;;
22812;SDS011;11573;51.334;3.244;2023-04-03T01:50:30;8.52;;;5.07;;
22812;SDS011;11573;51.334;3.244;2023-04-03T01:52:57;10.60;;;5.70;;
22812;SDS011;11573;51.334;3.244;2023-04-03T01:55:24;8.65;;;5.32;;
22812;SDS011;11573;51.334;3.244;2023-04-03T01:57:52;8.13;;;4.72;;
22812;SDS011;11573;51.334;3.244;2023-04-03T02:00:19;8.25;;;4.97;;
22812;SDS011;11573;51.334;3.244;2023-04-03T02:02:46;9.63;;;5.20;;
22812;SDS011;11573;51.334;3.244;2023-04-03T02:05:13;11.05;;;5.20;;
22812;SDS011;11573;51.334;3.244;2023-04-03T02:07:40;8.50;;;5.07;;
22812;SDS011;11573;51.334;3.244;2023-04-03T02:10:07;9.45;;;4.72;;
22812;SDS011;11573;51.334;3.244;2023-04-03T02:12:34;9.73;;;4.93;;
22812;SDS011;11573;51.334;3.244;2023-04-03T02:15:01;10.60;;;4.43;;
22812;SDS011;11573;51.334;3.244;2023-04-03T02:17:28;8.02;;;5.07;;
22812;SDS011;11573;51.334;3.244;2023-04-03T02:19:55;9.13;;;4.43;;
22812;SDS011;11573;51.334;3.244;2023-04-03T02:22:22;6.18;;;3.90;;
22812;SDS011;11573;51.334;3.244;2023-04-03T02:24:50;9.57;;;3.92;;
22812;SDS011;11573;51.334;3.244;2023-04-03T02:27:19;7.40;;;3.88;;
22812;SDS011;11573;51.334;3.244;2023-04-03T02:29:47;8.27;;;4.40;;
22812;SDS011;11573;51.334;3.244;2023-04-03T02:32:14;9.13;;;4.05;;
22812;SDS011;11573;51.334;3.244;2023-04-03T02:34:42;10.65;;;4.20;;
22812;SDS011;11573;51.334;3.244;2023-04-03T02:37:10;7.22;;;4.00;;
22812;SDS011;11573;51.334;3.244;2023-04-03T02:39:37;7.32;;;4.00;;
22812;SDS011;11573;51.334;3.244;2023-04-03T02:42:04;9.07;;;4.35;;
22812;SDS011;11573;51.334;3.244;2023-04-03T02:44:32;8.10;;;3.85;;
22812;SDS011;11573;51.334;3.244;2023-04-03T02:46:59;7.13;;;4.65;;
22812;SDS011;11573;51.334;3.244;2023-04-03T02:49:26;7.85;;;4.47;;
22812;SDS011;11573;51.334;3.244;2023-04-03T02:51:53;5.97;;;4.07;;
22812;SDS011;11573;51.334;3.244;2023-04-03T02:54:20;8.10;;;4.07;;
22812;SDS011;11573;51.334;3.244;2023-04-03T02:56:53;9.25;;;4.13;;
22812;SDS011;11573;51.334;3.244;2023-04-03T02:59:20;7.80;;;4.47;;
22812;SDS011;11573;51.334;3.244;2023-04-03T03:01:47;6.43;;;4.10;;
22812;SDS011;11573;51.334;3.244;2023-04-03T03:04:15;8.85;;;3.83;;
22812;SDS011;11573;51.334;3.244;2023-04-03T03:06:42;9.63;;;4.65;;
22812;SDS011;11573;51.334;3.244;2023-04-03T03:09:10;10.40;;;3.85;;
22812;SDS011;11573;51.334;3.244;2023-04-03T03:11:37;8.80;;;4.20;;
22812;SDS011;11573;51.334;3.244;2023-04-03T03:14:04;6.57;;;4.47;;
22812;SDS011;11573;51.334;3.244;2023-04-03T03:16:32;9.75;;;4.20;;
22812;SDS011;11573;51.334;3.244;2023-04-03T03:18:59;6.55;;;3.85;;
22812;SDS011;11573;51.334;3.244;2023-04-03T03:21:26;6.43;;;3.80;;
22812;SDS011;11573;51.334;3.244;2023-04-03T03:23:53;6.53;;;4.40;;
22812;SDS011;11573;51.334;3.244;2023-04-03T03:26:20;9.73;;;4.38;;
22812;SDS011;11573;51.334;3.244;2023-04-03T03:28:47;5.97;;;3.88;;
22812;SDS011;11573;51.334;3.244;2023-04-03T03:31:14;6.07;;;4.00;;
22812;SDS011;11573;51.334;3.244;2023-04-03T03:33:41;10.25;;;4.15;;
22812;SDS011;11573;51.334;3.244;2023-04-03T03:36:08;6.68;;;4.45;;
22812;SDS011;11573;51.334;3.244;2023-04-03T03:38:37;8.07;;;4.22;;
22812;SDS011;11573;51.334;3.244;2023-04-03T03:41:04;11.05;;;4.85;;
22812;SDS011;11573;51.334;3.244;2023-04-03T03:43:33;8.18;;;4.95;;
22812;SDS011;11573;51.334;3.244;2023-04-03T03:46:02;7.65;;;4.68;;
22812;SDS011;11573;51.334;3.244;2023-04-03T03:48:29;7.88;;;4.90;;
22812;SDS011;11573;51.334;3.244;2023-04-03T03:50:56;6.18;;;4.20;;
22812;SDS011;11573;51.334;3.244;2023-04-03T03:53:27;11.05;;;4.35;;
22812;SDS011;11573;51.334;3.244;2023-04-03T03:55:58;7.80;;;4.50;;
22812;SDS011;11573;51.334;3.244;2023-04-03T03:58:28;6.65;;;4.00;;
22812;SDS011;11573;51.334;3.244;2023-04-03T04:00:54;6.75;;;4.30;;
22812;SDS011;11573;51.334;3.244;2023-04-03T04:03:22;7.30;;;4.70;;
22812;SDS011;11573;51.334;3.244;2023-04-03T04:05:50;5.80;;;4.57;;
22812;SDS011;11573;51.334;3.244;2023-04-03T04:08:17;8.15;;;5.32;;
22812;SDS011;11573;51.334;3.244;2023-04-03T04:10:44;10.07;;;5.57;;
22812;SDS011;11573;51.334;3.244;2023-04-03T04:13:13;9.43;;;5.03;;
22812;SDS011;11573;51.334;3.244;2023-04-03T04:15:41;9.90;;;5.07;;
22812;SDS011;11573;51.334;3.244;2023-04-03T04:18:09;9.13;;;5.07;;
22812;SDS011;11573;51.334;3.244;2023-04-03T04:20:36;8.75;;;5.40;;
22812;SDS011;11573;51.334;3.244;2023-04-03T04:23:04;9.73;;;5.22;;
22812;SDS011;11573;51.334;3.244;2023-04-03T04:25:31;8.02;;;5.60;;
22812;SDS011;11573;51.334;3.244;2023-04-03T04:27:59;14.40;;;6.07;;
22812;SDS011;11573;51.334;3.244;2023-04-03T04:30:26;7.43;;;5.28;;
22812;SDS011;11573;51.334;3.244;2023-04-03T04:32:55;7.95;;;5.47;;
22812;SDS011;11573;51.334;3.244;2023-04-03T04:35:23;7.90;;;5.50;;
22812;SDS011;11573;51.334;3.244;2023-04-03T04:37:51;9.80;;;5.72;;
22812;SDS011;11573;51.334;3.244;2023-04-03T04:40:19;8.77;;;5.65;;
22812;SDS011;11573;51.334;3.244;2023-04-03T04:42:47;13.00;;;6.38;;
22812;SDS011;11573;51.334;3.244;2023-04-03T04:45:14;9.13;;;6.38;;
22812;SDS011;11573;51.334;3.244;2023-04-03T04:47:43;10.88;;;6.53;;
22812;SDS011;11573;51.334;3.244;2023-04-03T04:50:10;11.95;;;6.20;;
22812;SDS011;11573;51.334;3.244;2023-04-03T04:52:38;10.30;;;6.55;;
22812;SDS011;11573;51.334;3.244;2023-04-03T04:55:07;10.82;;;6.38;;
22812;SDS011;11573;51.334;3.244;2023-04-03T04:57:34;12.73;;;7.50;;
22812;SDS011;11573;51.334;3.244;2023-04-03T05:00:02;10.30;;;6.13;;
22812;SDS011;11573;51.334;3.244;2023-04-03T05:02:30;9.68;;;6.28;;
22812;SDS011;11573;51.334;3.244;2023-04-03T05:04:57;10.82;;;6.38;;
22812;SDS011;11573;51.334;3.244;2023-04-03T05:07:27;9.50;;;6.82;;
22812;SDS011;11573;51.334;3.244;2023-04-03T05:09:56;9.73;;;6.25;;
22812;SDS011;11573;51.334;3.244;2023-04-03T05:12:22;9.35;;;6.50;;
22812;SDS011;11573;51.334;3.244;2023-04-03T05:14:55;14.18;;;7.22;;
22812;SDS011;11573;51.334;3.244;2023-04-03T05:17:23;12.73;;;7.20;;
22812;SDS011;11573;51.334;3.244;2023-04-03T05:19:54;16.65;;;7.25;;
22812;SDS011;11573;51.334;3.244;2023-04-03T05:22:22;12.10;;;7.40;;
22812;SDS011;11573;51.334;3.244;2023-04-03T05:24:53;12.27;;;7.63;;
22812;SDS011;11573;51.334;3.244;2023-04-03T05:27:20;11.93;;;7.45;;
22812;SDS011;11573;51.334;3.244;2023-04-03T05:29:52;12.65;;;7.68;;
22812;SDS011;11573;51.334;3.244;2023-04-03T05:32:22;11.15;;;6.80;;
22812;SDS011;11573;51.334;3.244;2023-04-03T05:34:57;10.98;;;7.20;;
22812;SDS011;11573;51.334;3.244;2023-04-03T05:37:26;19.27;;;7.90;;
22812;SDS011;11573;51.334;3.244;2023-04-03T05:39:55;13.52;;;7.53;;
22812;SDS011;11573;51.334;3.244;2023-04-03T05:42:22;11.68;;;7.63;;
22812;SDS011;11573;51.334;3.244;2023-04-03T05:44:49;13.65;;;7.55;;
22812;SDS011;11573;51.334;3.244;2023-04-03T05:47:17;13.93;;;8.55;;
22812;SDS011;11573;51.334;3.244;2023-04-03T05:49:44;13.75;;;8.02;;
22812;SDS011;11573;51.334;3.244;2023-04-03T05:54:50;10.35;;;7.80;;
22812;SDS011;11573;51.334;3.244;2023-04-03T05:57:23;18.92;;;9.00;;
22812;SDS011;11573;51.334;3.244;2023-04-03T05:59:50;16.10;;;9.30;;
22812;SDS011;11573;51.334;3.244;2023-04-03T06:02:20;14.88;;;8.88;;
22812;SDS011;11573;51.334;3.244;2023-04-03T06:04:49;16.08;;;8.80;;
22812;SDS011;11573;51.334;3.244;2023-04-03T06:07:19;12.13;;;8.60;;
22812;SDS011;11573;51.334;3.244;2023-04-03T06:09:49;13.15;;;8.55;;
22812;SDS011;11573;51.334;3.244;2023-04-03T06:12:20;16.90;;;9.20;;
22812;SDS011;11573;51.334;3.244;2023-04-03T06:14:47;11.85;;;8.10;;
22812;SDS011;11573;51.334;3.244;2023-04-03T06:17:15;14.18;;;9.43;;
22812;SDS011;11573;51.334;3.244;2023-04-03T06:19:44;14.32;;;9.13;;
22812;SDS011;11573;51.334;3.244;2023-04-03T06:22:12;14.40;;;8.40;;
22812;SDS011;11573;51.334;3.244;2023-04-03T06:24:39;13.43;;;9.00;;
22812;SDS011;11573;51.334;3.244;2023-04-03T06:27:07;16.00;;;8.75;;
22812;SDS011;11573;51.334;3.244;2023-04-03T06:29:34;16.95;;;8.55;;
22812;SDS011;11573;51.334;3.244;2023-04-03T06:32:01;11.88;;;8.40;;
22812;SDS011;11573;51.334;3.244;2023-04-03T06:34:28;12.43;;;8.02;;
22812;SDS011;11573;51.334;3.244;2023-04-03T06:36:55;18.20;;;8.77;;
22812;SDS011;11573;51.334;3.244;2023-04-03T06:39:23;12.45;;;8.02;;
22812;SDS011;11573;51.334;3.244;2023-04-03T06:41:50;10.70;;;7.78;;
22812;SDS011;11573;51.334;3.244;2023-04-03T06:44:25;16.98;;;8.57;;
22812;SDS011;11573;51.334;3.244;2023-04-03T06:46:52;14.48;;;8.07;;
22812;SDS011;11573;51.334;3.244;2023-04-03T06:49:20;14.45;;;8.32;;
22812;SDS011;11573;51.334;3.244;2023-04-03T06:51:47;13.23;;;7.75;;
22812;SDS011;11573;51.334;3.244;2023-04-03T06:54:14;12.15;;;7.95;;
22812;SDS011;11573;51.334;3.244;2023-04-03T06:56:41;14.30;;;8.15;;
22812;SDS011;11573;51.334;3.244;2023-04-03T06:59:09;11.00;;;8.07;;
22812;SDS011;11573;51.334;3.244;2023-04-03T07:01:36;9.77;;;7.15;;
22812;SDS011;11573;51.334;3.244;2023-04-03T07:04:03;16.58;;;7.78;;
22812;SDS011;11573;51.334;3.244;2023-04-03T07:06:30;12.57;;;7.47;;
22812;SDS011;11573;51.334;3.244;2023-04-03T07:08:59;11.80;;;7.15;;
22812;SDS011;11573;51.334;3.244;2023-04-03T07:11:26;13.18;;;7.65;;
22812;SDS011;11573;51.334;3.244;2023-04-03T07:13:53;12.20;;;7.28;;
22812;SDS011;11573;51.334;3.244;2023-04-03T07:16:20;10.48;;;7.20;;
22812;SDS011;11573;51.334;3.244;2023-04-03T07:18:47;11.95;;;8.02;;
22812;SDS011;11573;51.334;3.244;2023-04-03T07:21:14;8.70;;;6.45;;
22812;SDS011;11573;51.334;3.244;2023-04-03T07:23:41;12.75;;;7.22;;
22812;SDS011;11573;51.334;3.244;2023-04-03T07:26:08;12.63;;;6.47;;
22812;SDS011;11573;51.334;3.244;2023-04-03T07:28:35;12.38;;;6.45;;
22812;SDS011;11573;51.334;3.244;2023-04-03T07:31:04;10.07;;;5.97;;
22812;SDS011;11573;51.334;3.244;2023-04-03T07:33:38;13.13;;;6.15;;
22812;SDS011;11573;51.334;3.244;2023-04-03T07:36:06;15.35;;;6.90;;
22812;SDS011;11573;51.334;3.244;2023-04-03T07:38:34;10.43;;;5.95;;
22812;SDS011;11573;51.334;3.244;2023-04-03T07:41:02;11.50;;;5.60;;
22812;SDS011;11573;51.334;3.244;2023-04-03T07:43:30;9.93;;;5.45;;
22812;SDS011;11573;51.334;3.244;2023-04-03T07:45:57;9.45;;;5.57;;
22812;SDS011;11573;51.334;3.244;2023-04-03T07:48:24;9.20;;;5.47;;
22812;SDS011;11573;51.334;3.244;2023-04-03T07:50:52;8.70;;;4.88;;
22812;SDS011;11573;51.334;3.244;2023-04-03T07:53:19;7.32;;;5.07;;
22812;SDS011;11573;51.334;3.244;2023-04-03T07:55:47;9.90;;;4.80;;
22812;SDS011;11573;51.334;3.244;2023-04-03T07:58:16;8.38;;;4.80;;
22812;SDS011;11573;51.334;3.244;2023-04-03T08:00:44;10.23;;;5.00;;
22812;SDS011;11573;51.334;3.244;2023-04-03T08:03:13;7.97;;;4.82;;
22812;SDS011;11573;51.334;3.244;2023-04-03T08:05:43;8.65;;;4.88;;
22812;SDS011;11573;51.334;3.244;2023-04-03T08:08:12;7.30;;;5.13;;
22812;SDS011;11573;51.334;3.244;2023-04-03T08:10:48;9.95;;;5.65;;
22812;SDS011;11573;51.334;3.244;2023-04-03T08:13:16;8.60;;;5.30;;
22812;SDS011;11573;51.334;3.244;2023-04-03T08:15:44;8.05;;;5.10;;
22812;SDS011;11573;51.334;3.244;2023-04-03T08:18:11;7.88;;;4.60;;
22812;SDS011;11573;51.334;3.244;2023-04-03T08:20:39;8.65;;;4.47;;
22812;SDS011;11573;51.334;3.244;2023-04-03T08:23:07;7.50;;;4.90;;
22812;SDS011;11573;51.334;3.244;2023-04-03T08:25:39;8.93;;;4.93;;
22812;SDS011;11573;51.334;3.244;2023-04-03T08:28:07;6.03;;;4.32;;
22812;SDS011;11573;51.334;3.244;2023-04-03T08:30:35;7.22;;;4.85;;
22812;SDS011;11573;51.334;3.244;2023-04-03T08:33:02;8.75;;;5.25;;
22812;SDS011;11573;51.334;3.244;2023-04-03T08:35:30;11.70;;;5.60;;
22812;SDS011;11573;51.334;3.244;2023-04-03T08:37:57;6.50;;;4.93;;
22812;SDS011;11573;51.334;3.244;2023-04-03T08:40:24;9.05;;;5.93;;
22812;SDS011;11573;51.334;3.244;2023-04-03T08:45:42;6.90;;;4.95;;
22812;SDS011;11573;51.334;3.244;2023-04-03T08:48:15;7.80;;;4.95;;
22812;SDS011;11573;51.334;3.244;2023-04-03T08:50:47;7.03;;;5.18;;
22812;SDS011;11573;51.334;3.244;2023-04-03T08:53:30;11.75;;;5.40;;
22812;SDS011;11573;51.334;3.244;2023-04-03T08:56:04;8.48;;;5.70;;
22812;SDS011;11573;51.334;3.244;2023-04-03T08:58:47;11.60;;;5.18;;
22812;SDS011;11573;51.334;3.244;2023-04-03T09:01:38;10.50;;;5.38;;
22812;SDS011;11573;51.334;3.244;2023-04-03T09:04:14;7.70;;;5.43;;
22812;SDS011;11573;51.334;3.244;2023-04-03T09:06:48;10.90;;;5.10;;
22812;SDS011;11573;51.334;3.244;2023-04-03T09:22:45;9.48;;;4.28;;
22812;SDS011;11573;51.334;3.244;2023-04-03T09:25:28;10.07;;;4.38;;
22812;SDS011;11573;51.334;3.244;2023-04-03T09:28:00;8.38;;;3.80;;
22812;SDS011;11573;51.334;3.244;2023-04-03T09:30:36;9.52;;;4.18;;
22812;SDS011;11573;51.334;3.244;2023-04-03T09:33:04;7.15;;;3.70;;
22812;SDS011;11573;51.334;3.244;2023-04-03T09:35:34;7.53;;;3.88;;
22812;SDS011;11573;51.334;3.244;2023-04-03T09:38:15;6.25;;;3.83;;
22812;SDS011;11573;51.334;3.244;2023-04-03T09:40:45;7.28;;;3.80;;
22812;SDS011;11573;51.334;3.244;2023-04-03T09:49:08;6.90;;;3.33;;
22812;SDS011;11573;51.334;3.244;2023-04-03T09:51:38;4.28;;;2.78;;
22812;SDS011;11573;51.334;3.244;2023-04-03T09:54:24;7.50;;;2.85;;
22812;SDS011;11573;51.334;3.244;2023-04-03T09:57:07;7.05;;;2.92;;
22812;SDS011;11573;51.334;3.244;2023-04-03T09:59:56;6.20;;;2.60;;
22812;SDS011;11573;51.334;3.244;2023-04-03T10:05:02;5.00;;;2.88;;
22812;SDS011;11573;51.334;3.244;2023-04-03T10:07:37;8.73;;;3.40;;
22812;SDS011;11573;51.334;3.244;2023-04-03T10:10:17;9.20;;;3.67;;
22812;SDS011;11573;51.334;3.244;2023-04-03T10:12:46;8.43;;;3.63;;
22812;SDS011;11573;51.334;3.244;2023-04-03T10:15:15;7.00;;;2.88;;
22812;SDS011;11573;51.334;3.244;2023-04-03T10:17:57;21.25;;;2.90;;
22812;SDS011;11573;51.334;3.244;2023-04-03T10:20:43;9.85;;;3.30;;
22812;SDS011;11573;51.334;3.244;2023-04-03T10:36:49;8.20;;;2.88;;
22812;SDS011;11573;51.334;3.244;2023-04-03T10:39:28;4.07;;;2.53;;
22812;SDS011;11573;51.334;3.244;2023-04-03T10:53:18;6.45;;;2.92;;
22812;SDS011;11573;51.334;3.244;2023-04-03T10:58:58;6.63;;;2.07;;
22812;SDS011;11573;51.334;3.244;2023-04-03T11:01:46;4.40;;;2.30;;
22812;SDS011;11573;51.334;3.244;2023-04-03T11:04:18;4.25;;;2.30;;
22812;SDS011;11573;51.334;3.244;2023-04-03T11:06:52;3.60;;;1.95;;
22812;SDS011;11573;51.334;3.244;2023-04-03T11:09:26;4.85;;;2.08;;
22812;SDS011;11573;51.334;3.244;2023-04-03T11:14:53;5.10;;;2.08;;
22812;SDS011;11573;51.334;3.244;2023-04-03T11:17:28;3.42;;;2.20;;
22812;SDS011;11573;51.334;3.244;2023-04-03T11:22:41;5.47;;;2.33;;
22812;SDS011;11573;51.334;3.244;2023-04-03T11:30:18;4.93;;;1.67;;
22812;SDS011;11573;51.334;3.244;2023-04-03T11:35:45;4.05;;;2.20;;
22812;SDS011;11573;51.334;3.244;2023-04-03T11:38:26;5.75;;;2.00;;
22812;SDS011;11573;51.334;3.244;2023-04-03T11:40:57;4.97;;;1.85;;
22812;SDS011;11573;51.334;3.244;2023-04-03T11:43:27;5.07;;;2.03;;
22812;SDS011;11573;51.334;3.244;2023-04-03T11:45:56;4.05;;;2.00;;
22812;SDS011;11573;51.334;3.244;2023-04-03T11:50:55;3.60;;;1.63;;
22812;SDS011;11573;51.334;3.244;2023-04-03T11:55:57;6.93;;;1.85;;
22812;SDS011;11573;51.334;3.244;2023-04-03T11:58:28;4.25;;;1.67;;
22812;SDS011;11573;51.334;3.244;2023-04-03T12:01:00;2.47;;;1.42;;
22812;SDS011;11573;51.334;3.244;2023-04-03T12:03:35;3.22;;;2.00;;
22812;SDS011;11573;51.334;3.244;2023-04-03T12:08:54;3.92;;;1.95;;
22812;SDS011;11573;51.334;3.244;2023-04-03T12:11:29;4.45;;;1.77;;
22812;SDS011;11573;51.334;3.244;2023-04-03T12:16:40;3.55;;;1.70;;
22812;SDS011;11573;51.334;3.244;2023-04-03T12:29:20;4.80;;;2.20;;
22812;SDS011;11573;51.334;3.244;2023-04-03T12:37:51;3.58;;;1.35;;
22812;SDS011;11573;51.334;3.244;2023-04-03T12:40:48;2.40;;;1.33;;
22812;SDS011;11573;51.334;3.244;2023-04-03T12:46:46;4.38;;;1.33;;
22812;SDS011;11573;51.334;3.244;2023-04-03T12:52:16;4.03;;;1.42;;
22812;SDS011;11573;51.334;3.244;2023-04-03T12:55:15;3.33;;;1.42;;
22812;SDS011;11573;51.334;3.244;2023-04-03T12:57:43;2.90;;;1.42;;
22812;SDS011;11573;51.334;3.244;2023-04-03T13:02:56;4.72;;;1.70;;
22812;SDS011;11573;51.334;3.244;2023-04-03T13:05:24;2.08;;;1.40;;
22812;SDS011;11573;51.334;3.244;2023-04-03T13:07:58;4.20;;;1.80;;
22812;SDS011;11573;51.334;3.244;2023-04-03T13:12:56;3.58;;;1.33;;
22812;SDS011;11573;51.334;3.244;2023-04-03T13:15:28;2.90;;;1.50;;
22812;SDS011;11573;51.334;3.244;2023-04-03T13:17:56;6.20;;;1.80;;
22812;SDS011;11573;51.334;3.244;2023-04-03T13:20:25;3.55;;;1.50;;
22812;SDS011;11573;51.334;3.244;2023-04-03T13:25:21;3.15;;;1.50;;
22812;SDS011;11573;51.334;3.244;2023-04-03T13:27:50;2.53;;;1.48;;
22812;SDS011;11573;51.334;3.244;2023-04-03T13:30:35;2.28;;;1.48;;
22812;SDS011;11573;51.334;3.244;2023-04-03T13:33:06;7.68;;;1.77;;
22812;SDS011;11573;51.334;3.244;2023-04-03T13:35:46;6.45;;;2.22;;
22812;SDS011;11573;51.334;3.244;2023-04-03T13:40:48;9.05;;;2.95;;
22812;SDS011;11573;51.334;3.244;2023-04-03T13:43:19;4.28;;;2.00;;
22812;SDS011;11573;51.334;3.244;2023-04-03T13:48:40;15.55;;;3.10;;
22812;SDS011;11573;51.334;3.244;2023-04-03T13:54:16;10.23;;;2.03;;
22812;SDS011;11573;51.334;3.244;2023-04-03T13:56:52;3.20;;;1.75;;
22812;SDS011;11573;51.334;3.244;2023-04-03T13:59:23;4.72;;;2.00;;
22812;SDS011;11573;51.334;3.244;2023-04-03T14:04:30;3.58;;;1.77;;
22812;SDS011;11573;51.334;3.244;2023-04-03T14:06:59;4.18;;;2.05;;
22812;SDS011;11573;51.334;3.244;2023-04-03T14:09:26;4.72;;;2.10;;
22812;SDS011;11573;51.334;3.244;2023-04-03T14:11:58;5.80;;;2.40;;
22812;SDS011;11573;51.334;3.244;2023-04-03T14:14:33;3.22;;;1.40;;
22812;SDS011;11573;51.334;3.244;2023-04-03T14:17:03;7.25;;;1.70;;
22812;SDS011;11573;51.334;3.244;2023-04-03T14:19:51;6.70;;;2.00;;
22812;SDS011;11573;51.334;3.244;2023-04-03T14:22:23;1.92;;;1.48;;
22812;SDS011;11573;51.334;3.244;2023-04-03T14:24:52;3.25;;;1.65;;
22812;SDS011;11573;51.334;3.244;2023-04-03T14:27:24;4.18;;;2.00;;
22812;SDS011;11573;51.334;3.244;2023-04-03T14:29:54;3.17;;;1.77;;
22812;SDS011;11573;51.334;3.244;2023-04-03T14:32:22;3.85;;;2.00;;
22812;SDS011;11573;51.334;3.244;2023-04-03T14:34:50;4.10;;;1.75;;
22812;SDS011;11573;51.334;3.244;2023-04-03T14:37:22;2.72;;;1.63;;
22812;SDS011;11573;51.334;3.244;2023-04-03T14:39:52;2.20;;;1.42;;
22812;SDS011;11573;51.334;3.244;2023-04-03T14:42:22;2.40;;;1.45;;
22812;SDS011;11573;51.334;3.244;2023-04-03T14:44:51;5.28;;;1.85;;
22812;SDS011;11573;51.334;3.244;2023-04-03T14:47:19;2.92;;;1.75;;
22812;SDS011;11573;51.334;3.244;2023-04-03T14:50:01;3.75;;;1.55;;
22812;SDS011;11573;51.334;3.244;2023-04-03T14:52:33;3.25;;;1.33;;
22812;SDS011;11573;51.334;3.244;2023-04-03T14:55:02;3.67;;;1.60;;
22812;SDS011;11573;51.334;3.244;2023-04-03T14:57:32;2.92;;;1.40;;
22812;SDS011;11573;51.334;3.244;2023-04-03T14:59:59;2.85;;;1.50;;
22812;SDS011;11573;51.334;3.244;2023-04-03T15:02:29;2.17;;;1.55;;
22812;SDS011;11573;51.334;3.244;2023-04-03T15:04:59;2.03;;;1.30;;
22812;SDS011;11573;51.334;3.244;2023-04-03T15:07:27;2.17;;;1.17;;
22812;SDS011;11573;51.334;3.244;2023-04-03T15:09:56;3.00;;;1.40;;
22812;SDS011;11573;51.334;3.244;2023-04-03T15:12:23;3.53;;;1.38;;
22812;SDS011;11573;51.334;3.244;2023-04-03T15:14:51;2.42;;;1.40;;
22812;SDS011;11573;51.334;3.244;2023-04-03T15:17:28;2.10;;;1.40;;
22812;SDS011;11573;51.334;3.244;2023-04-03T15:19:55;2.20;;;1.30;;
22812;SDS011;11573;51.334;3.244;2023-04-03T15:22:22;3.22;;;1.60;;
22812;SDS011;11573;51.334;3.244;2023-04-03T15:24:49;4.18;;;1.45;;
22812;SDS011;11573;51.334;3.244;2023-04-03T15:27:16;2.67;;;1.20;;
22812;SDS011;11573;51.334;3.244;2023-04-03T15:29:43;2.63;;;1.23;;
22812;SDS011;11573;51.334;3.244;2023-04-03T15:32:11;4.68;;;1.48;;
22812;SDS011;11573;51.334;3.244;2023-04-03T15:34:39;2.33;;;1.17;;
22812;SDS011;11573;51.334;3.244;2023-04-03T15:37:06;2.03;;;1.10;;
22812;SDS011;11573;51.334;3.244;2023-04-03T15:39:33;0.80;;;0.77;;
22812;SDS011;11573;51.334;3.244;2023-04-03T15:42:00;3.92;;;1.20;;
22812;SDS011;11573;51.334;3.244;2023-04-03T15:44:35;4.95;;;1.10;;
22812;SDS011;11573;51.334;3.244;2023-04-03T15:47:02;2.35;;;1.15;;
22812;SDS011;11573;51.334;3.244;2023-04-03T15:49:30;2.00;;;1.20;;
22812;SDS011;11573;51.334;3.244;2023-04-03T15:51:59;5.13;;;1.17;;
22812;SDS011;11573;51.334;3.244;2023-04-03T15:54:27;3.80;;;1.35;;
22812;SDS011;11573;51.334;3.244;2023-04-03T15:56:55;1.30;;;0.90;;
22812;SDS011;11573;51.334;3.244;2023-04-03T15:59:23;1.30;;;1.20;;
22812;SDS011;11573;51.334;3.244;2023-04-03T16:01:50;1.65;;;1.08;;
22812;SDS011;11573;51.334;3.244;2023-04-03T16:04:18;5.68;;;1.48;;
22812;SDS011;11573;51.334;3.244;2023-04-03T16:06:47;2.78;;;1.35;;
22812;SDS011;11573;51.334;3.244;2023-04-03T16:09:14;1.45;;;1.10;;
22812;SDS011;11573;51.334;3.244;2023-04-03T16:11:42;1.63;;;1.05;;
22812;SDS011;11573;51.334;3.244;2023-04-03T16:14:09;1.90;;;1.40;;
22812;SDS011;11573;51.334;3.244;2023-04-03T16:16:37;3.10;;;1.40;;
22812;SDS011;11573;51.334;3.244;2023-04-03T16:19:04;4.32;;;1.77;;
22812;SDS011;11573;51.334;3.244;2023-04-03T16:21:32;3.78;;;1.40;;
22812;SDS011;11573;51.334;3.244;2023-04-03T16:23:59;2.42;;;1.52;;
22812;SDS011;11573;51.334;3.244;2023-04-03T16:26:27;1.85;;;1.70;;
22812;SDS011;11573;51.334;3.244;2023-04-03T16:28:54;1.52;;;1.40;;
22812;SDS011;11573;51.334;3.244;2023-04-03T16:31:21;3.92;;;1.50;;
22812;SDS011;11573;51.334;3.244;2023-04-03T16:33:49;1.33;;;1.20;;
22812;SDS011;11573;51.334;3.244;2023-04-03T16:36:16;2.45;;;1.42;;
22812;SDS011;11573;51.334;3.244;2023-04-03T16:38:43;2.05;;;1.30;;
22812;SDS011;11573;51.334;3.244;2023-04-03T16:41:10;2.33;;;1.13;;
22812;SDS011;11573;51.334;3.244;2023-04-03T16:43:37;5.05;;;1.35;;
22812;SDS011;11573;51.334;3.244;2023-04-03T16:46:04;3.25;;;1.30;;
22812;SDS011;11573;51.334;3.244;2023-04-03T16:48:31;2.22;;;1.13;;
22812;SDS011;11573;51.334;3.244;2023-04-03T16:50:58;2.58;;;1.25;;
22812;SDS011;11573;51.334;3.244;2023-04-03T16:53:25;2.38;;;1.17;;
22812;SDS011;11573;51.334;3.244;2023-04-03T16:55:53;3.67;;;1.30;;
22812;SDS011;11573;51.334;3.244;2023-04-03T16:58:20;3.30;;;1.30;;
22812;SDS011;11573;51.334;3.244;2023-04-03T17:00:49;1.75;;;1.13;;
22812;SDS011;11573;51.334;3.244;2023-04-03T17:03:17;3.10;;;1.67;;
22812;SDS011;11573;51.334;3.244;2023-04-03T17:05:46;2.45;;;1.50;;